Time;durP1;ratioP1;P1;durP2;ratioP2;P2;SDS_P1;SDS_P2;PMS_P1;PMS_P2;Temp;Humidity;BMP_temperature;BMP_pressure;BME280_temperature;BME280_humidity;BME280_pressure;Samples;Min_cycle;Max_cycle;Signal;HPM_P1;HPM_P2
2023/10/12 00:02:13;;;;;;;17.15;10.23;;;;;;;18.22;66.17;101105.28;5104277;28;20062;-66
2023/10/12 00:04:43;;;;;;;20.30;11.07;;;;;;;18.24;66.23;101114.28;5111784;28;20035;-66
2023/10/12 00:07:15;;;;;;;18.88;11.13;;;;;;;18.22;66.67;101111.75;5090937;28;20379;-66
2023/10/12 00:10:01;;;;;;;18.95;11.93;;;;;;;18.21;67.26;101121.31;5096700;28;20020;-66
2023/10/12 00:12:26;;;;;;;19.20;12.90;;;;;;;18.22;67.60;101124.97;5090915;28;20042;-66
2023/10/12 00:14:56;;;;;;;20.23;12.32;;;;;;;18.22;68.00;101131.41;5090005;28;20032;-66
2023/10/12 00:17:26;;;;;;;22.65;13.65;;;;;;;18.20;68.86;101130.91;5100733;28;20498;-66
2023/10/12 00:19:52;;;;;;;20.25;13.60;;;;;;;18.18;69.13;101121.91;5100822;28;20052;-66
2023/10/12 00:22:17;;;;;;;20.77;13.30;;;;;;;18.19;69.38;101122.75;5096081;28;20028;-65
2023/10/12 00:24:43;;;;;;;18.27;12.48;;;;;;;18.19;69.44;101129.19;5099471;28;20043;-66
2023/10/12 00:27:11;;;;;;;20.52;13.52;;;;;;;18.16;69.89;101138.25;5100240;28;20051;-65
2023/10/12 00:29:39;;;;;;;19.30;13.98;;;;;;;18.17;69.95;101136.25;5090999;28;20103;-66
2023/10/12 00:32:06;;;;;;;22.10;14.25;;;;;;;18.15;70.25;101137.38;5107813;28;20028;-66
2023/10/12 00:34:37;;;;;;;22.33;13.93;;;;;;;18.17;70.47;101142.72;5103803;28;20028;-66
2023/10/12 00:37:03;;;;;;;24.75;15.10;;;;;;;18.15;71.06;101140.19;5097600;28;20444;-66
2023/10/12 00:39:43;;;;;;;23.20;14.95;;;;;;;18.13;71.43;101144.44;5099161;28;20035;-66
2023/10/12 00:42:10;;;;;;;22.77;15.13;;;;;;;18.13;71.88;101148.09;5095003;28;20506;-66
2023/10/12 00:44:40;;;;;;;21.45;16.30;;;;;;;18.04;72.85;101161.13;5092444;28;20387;-65
2023/10/12 00:47:18;;;;;;;27.83;16.55;;;;;;;18.06;72.83;101166.44;5093570;28;20550;-65
2023/10/12 00:49:48;;;;;;;21.92;15.55;;;;;;;18.04;73.09;101171.53;5103712;28;20049;-66
2023/10/12 00:52:23;;;;;;;26.70;16.95;;;;;;;18.01;73.82;101178.56;5099199;28;20090;-66
2023/10/12 00:54:56;;;;;;;24.25;16.48;;;;;;;18.03;73.80;101170.66;5099568;28;20028;-65
2023/10/12 00:57:22;;;;;;;;;;;;;;;18.16;71.30;101174.75;5095880;28;20024;-66
2023/10/12 00:59:50;;;;;;;26.52;16.00;;;;;;;18.02;74.05;101173.78;5093422;28;20372;-66
2023/10/12 01:02:17;;;;;;;28.98;17.25;;;;;;;18.02;73.91;101168.16;5095849;28;20469;-66
2023/10/12 01:04:44;;;;;;;27.08;15.88;;;;;;;18.00;74.45;101164.78;5104427;28;20023;-66
2023/10/12 01:07:15;;;;;;;23.77;16.73;;;;;;;18.01;74.60;101167.31;5092931;28;20034;-66
2023/10/12 01:09:45;;;;;;;25.30;16.65;;;;;;;17.97;75.17;101165.41;5094522;28;20032;-66
2023/10/12 01:12:14;;;;;;;25.00;17.52;;;;;;;17.97;75.23;101169.03;5095526;28;20114;-66
2023/10/12 01:14:49;;;;;;;26.70;17.63;;;;;;;17.96;75.38;101174.94;5101279;28;20111;-66
2023/10/12 01:17:18;;;;;;;27.48;17.75;;;;;;;17.93;75.76;101176.38;5113954;28;20430;-66
2023/10/12 01:19:47;;;;;;;26.33;17.58;;;;;;;17.91;75.97;101179.47;5112905;28;20026;-66
2023/10/12 01:22:14;;;;;;;31.92;17.73;;;;;;;17.88;76.50;101180.09;5094379;28;20479;-66
2023/10/12 01:24:57;;;;;;;25.17;16.77;;;;;;;17.90;76.48;101171.34;5101170;28;20043;-65
2023/10/12 01:27:25;;;;;;;26.85;18.00;;;;;;;17.89;76.70;101172.50;5092364;28;20024;-66
2023/10/12 01:29:54;;;;;;;26.35;17.55;;;;;;;17.87;76.91;101175.56;5092895;28;20027;-66
2023/10/12 01:34:57;;;;;;;28.15;18.42;;;;;;;17.85;77.42;101162.97;5092486;28;20483;-65
2023/10/12 01:37:25;;;;;;;27.55;19.25;;;;;;;17.86;77.37;101154.25;5112018;28;20527;-66
2023/10/12 01:40:12;;;;;;;26.63;18.08;;;;;;;17.87;77.16;101127.84;5110939;28;20463;-66
2023/10/12 01:45:17;;;;;;;27.58;19.45;;;;;;;17.79;77.95;101124.84;5105500;28;20166;-66
2023/10/12 01:47:44;;;;;;;26.83;18.60;;;;;;;17.82;77.85;101124.25;5097075;28;20024;-66
2023/10/12 01:50:09;;;;;;;27.58;18.52;;;;;;;17.76;78.40;101129.06;5094404;28;20024;-66
2023/10/12 01:52:35;;;;;;;28.33;18.85;;;;;;;17.79;78.31;101127.66;5100218;28;20046;-65
2023/10/12 01:55:01;;;;;;;28.88;19.73;;;;;;;17.77;78.56;101142.00;5108580;28;20016;-65
2023/10/12 01:57:35;;;;;;;24.25;18.00;;;;;;;17.81;78.45;101145.03;5093995;28;20540;-66
2023/10/12 02:00:09;;;;;;;33.28;19.63;;;;;;;17.75;78.83;101140.59;5108797;28;20024;-65
2023/10/12 02:02:35;;;;;;;27.90;19.13;;;;;;;17.73;78.91;101143.69;5108221;28;20028;-65
2023/10/12 02:05:01;;;;;;;26.83;18.15;;;;;;;17.72;79.17;101135.53;5094524;28;20023;-65
2023/10/12 02:07:27;;;;;;;29.55;18.38;;;;;;;17.69;79.39;101141.75;5098891;28;20562;-65
2023/10/12 02:09:52;;;;;;;29.58;19.10;;;;;;;17.66;79.32;101140.38;5103392;28;20046;-65
2023/10/12 02:12:25;;;;;;;25.35;19.73;;;;;;;17.60;79.45;101139.56;5106682;28;20031;-65
2023/10/12 02:14:50;;;;;;;25.15;18.98;;;;;;;17.61;79.26;101149.66;5095685;28;20036;-66
2023/10/12 02:17:18;;;;;;;25.15;20.02;;;;;;;17.59;79.14;101149.13;5097640;28;20088;-65
2023/10/12 02:19:43;;;;;;;30.73;19.98;;;;;;;17.59;79.33;101154.72;5103969;28;20348;-66
2023/10/12 02:22:29;;;;;;;29.70;19.25;;;;;;;17.59;79.03;101148.28;5104304;28;20038;-66
2023/10/12 02:25:18;;;;;;;27.08;20.25;;;;;;;17.59;78.78;101159.50;5102973;28;20472;-65
2023/10/12 02:27:57;;;;;;;25.63;19.90;;;;;;;17.54;79.23;101148.31;5101221;28;20046;-65
2023/10/12 02:30:29;;;;;;;28.15;20.40;;;;;;;17.52;79.45;101131.75;5100061;28;20048;-65
2023/10/12 02:33:01;;;;;;;28.97;21.13;;;;;;;17.49;78.99;101125.91;5093258;28;20062;-65
2023/10/12 02:35:28;;;;;;;;;;;;;;;17.66;77.19;101112.28;5100171;28;20020;-66
2023/10/12 02:37:53;;;;;;;28.58;19.88;;;;;;;17.51;79.03;101106.81;5100955;28;19920;-66
2023/10/12 02:40:20;;;;;;;27.80;20.20;;;;;;;17.50;79.10;101105.16;5104271;28;20521;-65
2023/10/12 02:42:51;;;;;;;28.92;20.08;;;;;;;17.50;79.01;101105.97;5099905;28;20071;-65
2023/10/12 02:45:17;;;;;;;24.83;19.88;;;;;;;17.51;79.21;101118.03;5106594;28;20020;-65
2023/10/12 02:47:45;;;;;;;28.00;19.75;;;;;;;17.47;79.47;101122.56;5101017;28;20019;-65
2023/10/12 02:52:37;;;;;;;26.38;19.25;;;;;;;17.45;79.77;101099.53;5095969;28;20044;-66
2023/10/12 02:58:15;;;;;;;27.00;18.92;;;;;;;17.43;79.70;101111.06;5095847;28;20036;-66
2023/10/12 03:03:09;;;;;;;26.67;18.02;;;;;;;17.41;79.76;101108.56;5108685;28;20024;-66
2023/10/12 03:05:46;;;;;;;28.88;19.98;;;;;;;17.35;80.16;101106.94;5097574;28;20072;-65
2023/10/12 03:08:12;;;;;;;26.83;18.08;;;;;;;17.34;80.02;101108.06;5105027;28;20057;-65
2023/10/12 03:11:01;;;;;;;25.67;19.25;;;;;;;17.37;79.95;101099.06;5094800;28;20430;-66
2023/10/12 03:13:26;;;;;;;26.33;19.23;;;;;;;17.30;80.23;101109.78;5099237;28;20035;-65
2023/10/12 03:16:03;;;;;;;24.80;19.23;;;;;;;17.31;80.20;101107.81;5100734;28;20394;-66
2023/10/12 03:18:28;;;;;;;26.00;19.23;;;;;;;17.32;80.53;101101.91;5105466;28;20028;-65
2023/10/12 03:21:02;;;;;;;24.15;17.98;;;;;;;17.27;80.18;101090.72;5093962;28;20455;-65
2023/10/12 03:23:29;;;;;;;25.08;18.02;;;;;;;17.32;80.15;101107.50;5104777;28;20048;-65
2023/10/12 03:25:54;;;;;;;24.52;17.48;;;;;;;17.26;80.30;101102.25;5101173;28;20425;-65
2023/10/12 03:28:43;;;;;;;25.00;16.77;;;;;;;17.32;80.13;101103.88;5093390;28;20032;-65
2023/10/12 03:31:15;;;;;;;23.98;17.13;;;;;;;17.28;80.19;101105.59;5093632;28;20042;-65
2023/10/12 03:33:46;;;;;;;25.40;17.55;;;;;;;17.24;80.28;101105.31;5098994;28;20020;-66
2023/10/12 03:36:36;;;;;;;25.38;15.50;;;;;;;17.23;80.01;101100.03;5097207;28;20356;-66
2023/10/12 03:47:24;;;;;;;20.92;15.93;;;;;;;17.21;79.84;101125.53;5094473;28;20383;-66
2023/10/12 03:52:27;;;;;;;21.38;14.93;;;;;;;17.24;79.95;101113.75;5107800;28;20028;-65
2023/10/12 03:55:19;;;;;;;22.73;15.80;;;;;;;17.23;80.25;101114.88;5094106;28;20036;-66
2023/10/12 03:57:50;;;;;;;20.50;15.63;;;;;;;17.17;80.07;101114.09;5100928;28;20047;-66
2023/10/12 04:05:21;;;;;;;25.55;14.63;;;;;;;17.21;80.08;101136.75;5108218;28;20050;-65
2023/10/12 04:08:00;;;;;;;19.55;14.52;;;;;;;17.20;80.11;101137.91;5100624;28;20068;-65
2023/10/12 04:19:03;;;;;;;18.73;14.40;;;;;;;17.15;80.48;101140.75;5094392;28;20078;-65
2023/10/12 04:21:33;;;;;;;22.77;16.23;;;;;;;17.11;80.62;101145.25;5099819;28;20143;-65
2023/10/12 04:29:08;;;;;;;26.05;16.25;;;;;;;17.12;80.92;101144.13;5097345;28;20032;-65
2023/10/12 04:31:34;;;;;;;23.23;15.77;;;;;;;17.12;80.87;101138.50;5106047;28;20479;-65
2023/10/12 04:34:06;;;;;;;20.83;15.15;;;;;;;17.09;80.93;101141.88;5114543;28;20038;-65
2023/10/12 04:37:07;;;;;;;21.02;15.18;;;;;;;17.14;80.91;101133.47;5113460;28;20034;-65
2023/10/12 04:39:36;;;;;;;20.73;15.27;;;;;;;17.13;80.96;101132.63;5097634;28;20039;-65
2023/10/12 04:42:12;;;;;;;19.23;15.13;;;;;;;17.10;80.96;101138.81;5095127;28;20507;-65
2023/10/12 04:44:43;;;;;;;19.63;15.00;;;;;;;17.09;81.12;101147.50;5095000;28;20080;-65
2023/10/12 04:47:15;;;;;;;22.42;15.35;;;;;;;17.04;81.24;101148.38;5096223;28;20620;-65
2023/10/12 04:55:28;;;;;;;22.65;15.35;;;;;;;17.07;81.30;101144.16;5099103;28;20047;-66
2023/10/12 04:57:30;;;;;;;23.05;14.82;;;;;;;17.08;81.36;101146.66;5084145;28;20040;-67
2023/10/12 05:07:54;;;;;;;20.17;13.77;;;;;;;17.03;81.61;101160.72;5106264;28;20497;-68
2023/10/12 05:11:08;;;;;;;21.00;13.50;;;;;;;17.05;81.83;101169.66;5101842;28;20114;-68
2023/10/12 05:13:19;;;;;;;17.60;14.18;;;;;;;17.06;81.46;101176.16;5089445;28;20039;-66
2023/10/12 05:15:54;;;;;;;18.67;14.65;;;;;;;17.07;81.57;101186.22;5091456;28;20032;-68
2023/10/12 05:18:24;;;;;;;17.95;14.73;;;;;;;17.06;81.62;101185.41;5098014;28;20028;-68
2023/10/12 05:20:52;;;;;;;20.17;14.00;;;;;;;17.02;81.84;101198.31;5092998;28;20039;-71
2023/10/12 05:23:18;;;;;;;18.17;12.95;;;;;;;17.03;81.81;101191.56;5094544;28;20169;-69
2023/10/12 05:31:20;;;;;;;19.33;13.35;;;;;;;17.02;81.72;101181.50;5035664;28;20073;-67
2023/10/12 05:34:08;;;;;;;16.38;13.13;;;;;;;16.99;81.82;101190.47;5101284;28;20016;-66
2023/10/12 05:36:34;;;;;;;17.73;12.25;;;;;;;16.97;81.76;101184.31;5094022;28;20032;-67
2023/10/12 05:39:11;;;;;;;17.02;13.00;;;;;;;16.95;81.90;101189.38;5096504;28;20483;-67
2023/10/12 05:41:38;;;;;;;17.77;12.98;;;;;;;16.98;81.99;101187.94;5097093;28;20489;-67
2023/10/12 05:44:08;;;;;;;20.63;13.40;;;;;;;16.97;82.07;101191.88;5096905;28;20417;-68
2023/10/12 05:46:34;;;;;;;18.42;13.18;;;;;;;16.95;82.11;101189.38;5090615;28;20076;-68
2023/10/12 05:49:12;;;;;;;18.55;12.82;;;;;;;16.95;81.98;101192.19;5095169;28;20104;-68
2023/10/12 05:51:38;;;;;;;20.33;12.50;;;;;;;16.93;81.85;101198.06;5095629;28;20062;-69
2023/10/12 05:54:06;;;;;;;17.30;12.38;;;;;;;16.93;82.08;101211.25;5091118;28;20131;-72
2023/10/12 05:56:36;;;;;;;21.30;13.80;;;;;;;16.96;81.96;101212.63;5094526;28;20376;-74
2023/10/12 05:59:03;;;;;;;16.52;12.43;;;;;;;16.98;81.68;101213.19;5110371;28;20073;-70
2023/10/12 06:01:36;;;;;;;17.20;12.70;;;;;;;16.93;81.77;101219.66;5106637;28;20032;-71
2023/10/12 06:04:05;;;;;;;19.30;13.40;;;;;;;16.91;81.87;101217.16;5106269;28;20111;-70
2023/10/12 06:06:35;;;;;;;18.75;12.18;;;;;;;16.96;81.95;101221.88;5091675;28;20024;-70
2023/10/12 06:09:01;;;;;;;19.52;12.82;;;;;;;16.97;81.78;101219.91;5091904;28;20027;-70
2023/10/12 06:11:26;;;;;;;19.88;12.43;;;;;;;16.97;81.81;101223.56;5092019;28;20027;-71
2023/10/12 06:13:53;;;;;;;19.58;12.25;;;;;;;16.96;81.74;101218.25;5090214;28;20032;-70
2023/10/12 06:16:20;;;;;;;18.50;12.38;;;;;;;16.96;81.53;101213.47;5091914;28;20020;-71
2023/10/12 06:18:46;;;;;;;19.02;12.95;;;;;;;16.93;81.74;101217.69;5100818;28;20381;-69
2023/10/12 06:21:19;;;;;;;19.55;12.85;;;;;;;16.92;81.76;101232.00;5095455;28;20455;-70
2023/10/12 06:23:51;;;;;;;17.15;12.43;;;;;;;16.90;82.00;101229.50;5095763;28;20039;-69
2023/10/12 06:26:29;;;;;;;;;;;;;;;17.08;80.39;101233.59;5093731;28;20039;-69
2023/10/12 06:29:00;;;;;;;20.17;12.63;;;;;;;16.94;81.80;101229.75;5095997;28;20333;-64
2023/10/12 06:31:30;;;;;;;17.88;12.93;;;;;;;16.97;81.55;101234.78;5093458;28;20517;-71
2023/10/12 06:33:56;;;;;;;19.83;13.20;;;;;;;16.87;81.73;101238.47;5093613;28;20111;-70
2023/10/12 06:36:38;;;;;;;19.58;12.50;;;;;;;16.90;81.94;101246.31;5097419;28;20114;-70
2023/10/12 06:46:48;;;;;;;20.90;13.00;;;;;;;16.85;82.09;101237.91;5098227;28;20035;-70
2023/10/12 06:49:18;;;;;;;17.60;12.95;;;;;;;16.89;82.04;101239.00;5092606;28;20039;-71
2023/10/12 06:52:04;;;;;;;16.73;12.65;;;;;;;16.86;82.19;101241.56;5095210;28;20085;-70
2023/10/12 06:54:39;;;;;;;20.52;12.77;;;;;;;16.82;82.38;101246.91;5091600;28;20107;-70
2023/10/12 07:02:30;;;;;;;17.45;12.65;;;;;;;16.83;82.38;101257.00;5091765;28;20059;-69
2023/10/12 07:05:01;;;;;;;18.63;12.82;;;;;;;16.83;82.47;101257.00;5091900;28;20523;-69
2023/10/12 07:07:41;;;;;;;22.10;13.63;;;;;;;16.82;82.64;101263.72;5092990;28;20027;-71
2023/10/12 07:12:48;;;;;;;18.08;13.23;;;;;;;16.85;82.47;101263.13;5095042;28;20031;-69
2023/10/12 07:15:26;;;;;;;18.00;12.95;;;;;;;16.80;82.46;101262.31;5099790;28;20031;-69
2023/10/12 07:17:54;;;;;;;19.60;12.88;;;;;;;16.80;82.54;101268.75;5091145;28;20402;-69
2023/10/12 07:25:59;;;;;;;20.30;12.85;;;;;;;16.79;82.71;101286.72;5054280;28;20079;-67
2023/10/12 07:28:34;;;;;;;18.73;12.77;;;;;;;16.78;82.58;101279.44;5094138;28;20592;-67
2023/10/12 07:36:37;;;;;;;18.15;11.48;;;;;;;16.86;82.28;101292.88;5092653;28;20042;-64
2023/10/12 07:42:00;;;;;;;19.35;12.95;;;;;;;16.88;82.57;101292.56;5093826;28;20047;-67
2023/10/12 07:44:36;;;;;;;22.70;13.95;;;;;;;16.88;82.50;101289.78;5095982;28;20447;-68
2023/10/12 07:47:03;;;;;;;17.17;12.48;;;;;;;16.88;82.54;101289.78;5111164;28;20023;-68
2023/10/12 07:52:05;;;;;;;17.10;12.13;;;;;;;16.85;82.57;101290.34;5096281;28;20459;-68
2023/10/12 07:57:15;;;;;;;17.38;12.93;;;;;;;16.82;82.88;101285.28;5096826;28;20051;-67
2023/10/12 07:59:49;;;;;;;18.63;12.45;;;;;;;16.81;83.25;101295.66;5096763;28;20555;-67
2023/10/12 08:02:17;;;;;;;20.30;12.93;;;;;;;16.85;83.33;101295.94;5102098;28;20039;-68
2023/10/12 08:04:58;;;;;;;20.45;13.40;;;;;;;16.86;83.05;101294.84;5096773;28;20031;-68
2023/10/12 08:07:26;;;;;;;17.13;13.57;;;;;;;16.86;82.95;101287.28;5096468;28;20016;-68
2023/10/12 08:10:07;;;;;;;22.00;12.98;;;;;;;16.81;83.58;101284.47;5096640;28;20035;-68
2023/10/12 08:12:43;;;;;;;19.02;12.93;;;;;;;16.88;83.14;101286.97;5096862;28;20486;-68
2023/10/12 08:15:17;;;;;;;22.88;13.05;;;;;;;16.84;83.50;101278.28;5095521;28;20517;-67
2023/10/12 08:17:45;;;;;;;23.33;13.30;;;;;;;16.87;83.67;101280.53;5096975;28;20021;-68
2023/10/12 08:21:00;;;;;;;20.52;13.52;;;;;;;16.90;83.42;101281.94;5098258;28;20023;-68
2023/10/12 08:23:02;;;;;;;14.70;12.30;;;;;;;16.92;83.40;101286.09;5096361;28;20046;-68
2023/10/12 08:25:37;;;;;;;19.85;12.82;;;;;;;16.94;83.50;101283.03;5098362;28;20040;-68
2023/10/12 08:28:18;;;;;;;19.98;13.00;;;;;;;16.97;83.70;101288.06;5106314;28;20031;-68
2023/10/12 08:30:59;;;;;;;16.83;13.05;;;;;;;16.98;83.77;101283.28;5100961;28;20031;-67
2023/10/12 08:38:53;;;;;;;22.27;13.30;;;;;;;17.02;84.19;101285.25;5107013;28;20042;-68
2023/10/12 08:44:00;;;;;;;19.17;12.68;;;;;;;17.12;83.87;101295.59;5114562;28;20036;-68
2023/10/12 08:52:18;;;;;;;18.17;12.13;;;;;;;17.14;83.86;101301.75;5096453;28;20050;-68
2023/10/12 08:54:51;;;;;;;17.90;11.90;;;;;;;17.16;83.55;101313.50;5097753;28;20020;-68
2023/10/12 08:57:35;;;;;;;17.83;12.63;;;;;;;17.14;84.42;101312.97;5093704;28;20023;-68
2023/10/12 09:02:58;;;;;;;18.17;12.40;;;;;;;17.14;84.20;101322.22;5094583;28;20038;-64
2023/10/12 09:05:28;;;;;;;19.10;12.88;;;;;;;17.14;84.34;101322.22;5104384;28;20036;-64
2023/10/12 09:11:02;;;;;;;16.17;12.00;;;;;;;17.14;84.46;101312.97;5106567;28;20044;-66
2023/10/12 09:13:35;;;;;;;15.07;12.75;;;;;;;17.15;84.30;101323.06;5092283;28;20471;-66
2023/10/12 09:16:04;;;;;;;20.83;13.02;;;;;;;17.13;84.55;101314.94;5093239;28;20039;-66
2023/10/12 09:18:33;;;;;;;19.58;12.85;;;;;;;17.13;84.50;101319.69;5091750;28;20030;-66
2023/10/12 09:21:17;;;;;;;19.08;12.95;;;;;;;17.14;84.80;101324.19;5092064;28;20028;-66
2023/10/12 09:23:50;;;;;;;20.63;13.10;;;;;;;17.18;84.38;101328.94;5091737;28;20028;-66
2023/10/12 09:26:19;;;;;;;20.63;13.55;;;;;;;17.14;84.39;101324.19;5095267;28;20107;-66
2023/10/12 09:36:28;;;;;;;17.10;12.93;;;;;;;17.20;84.46;101316.59;5104677;28;20501;-66
2023/10/12 09:38:55;;;;;;;18.95;13.23;;;;;;;17.18;84.54;101312.13;5103896;28;20023;-62
2023/10/12 09:41:28;;;;;;;19.38;12.88;;;;;;;17.19;84.55;101312.94;5099804;28;20404;-63
2023/10/12 09:43:56;;;;;;;20.65;13.50;;;;;;;17.17;84.77;101303.97;5093986;28;20489;-63
2023/10/12 09:46:27;;;;;;;19.75;13.63;;;;;;;17.20;84.00;101303.41;5099867;28;20032;-65
2023/10/12 09:49:02;;;;;;;17.85;12.95;;;;;;;17.18;84.71;101300.91;5101811;28;20386;-65
2023/10/12 09:51:35;;;;;;;20.33;13.90;;;;;;;17.16;84.76;101300.31;5096280;28;20016;-64
2023/10/12 09:54:05;;;;;;;;;;;;;;;17.31;83.26;101305.03;5102813;28;20028;-65
2023/10/12 09:56:45;;;;;;;20.15;13.40;;;;;;;17.20;84.33;101306.19;5092525;28;19920;-65
2023/10/12 09:59:18;;;;;;;19.27;12.52;;;;;;;17.15;83.98;101295.00;5108298;28;20097;-65
2023/10/12 10:01:49;;;;;;;;;;;;;;;17.29;82.94;101287.66;5097862;28;20387;-64
2023/10/12 10:07:17;;;;;;;15.32;12.85;;;;;;;17.14;84.41;101296.97;5109805;28;20451;-64
2023/10/12 10:10:05;;;;;;;17.83;12.95;;;;;;;17.22;84.28;101305.94;5099584;28;20027;-64
2023/10/12 10:12:36;;;;;;;21.13;12.88;;;;;;;17.20;84.05;101300.59;5104880;28;20860;-67
2023/10/12 10:15:14;;;;;;;19.65;13.25;;;;;;;17.14;84.30;101298.97;5104221;28;20023;-68
2023/10/12 10:17:47;;;;;;;18.35;12.48;;;;;;;17.16;84.26;101296.69;5106254;28;20027;-68
2023/10/12 10:22:59;;;;;;;19.58;13.88;;;;;;;17.14;84.39;101282.13;5091819;28;20714;-68
2023/10/12 10:25:42;;;;;;;21.23;13.98;;;;;;;17.17;84.56;101288.00;5097425;28;20129;-69
2023/10/12 10:28:13;;;;;;;17.92;14.30;;;;;;;17.18;85.00;101283.22;5098641;28;21681;-69
2023/10/12 10:30:49;;;;;;;19.02;13.25;;;;;;;17.19;85.26;101279.28;5098848;28;20036;-69
2023/10/12 10:33:18;;;;;;;18.77;14.02;;;;;;;17.21;85.25;101271.41;5093634;28;20071;-69
2023/10/12 10:36:10;;;;;;;19.73;14.00;;;;;;;17.27;85.31;101270.28;5107076;28;20028;-69
2023/10/12 10:38:36;;;;;;;20.63;13.02;;;;;;;17.30;84.70;101257.66;5095104;28;20028;-68
2023/10/12 10:41:17;;;;;;;17.13;13.20;;;;;;;17.29;85.04;101261.56;5103696;28;20423;-66
2023/10/12 10:43:43;;;;;;;23.05;13.60;;;;;;;17.30;84.80;101261.28;5102441;28;20371;-67
2023/10/12 10:46:10;;;;;;;19.30;11.90;;;;;;;17.32;84.98;101267.44;5100752;28;20023;-67
2023/10/12 10:48:38;;;;;;;19.23;13.10;;;;;;;17.34;84.96;101253.13;5098652;28;20024;-66
2023/10/12 10:51:11;;;;;;;19.13;13.15;;;;;;;17.36;84.69;101257.31;5094202;28;20029;-67
2023/10/12 10:53:37;;;;;;;;;;;;;;;17.47;83.80;101263.72;5097298;28;20458;-67
2023/10/12 10:56:14;;;;;;;24.67;13.88;;;;;;;17.38;84.76;101252.25;5101812;28;20385;-67
2023/10/12 10:58:41;;;;;;;20.73;14.52;;;;;;;17.40;85.13;101261.22;5104348;28;20039;-66
2023/10/12 11:01:09;;;;;;;19.60;13.50;;;;;;;17.40;84.76;101258.41;5092086;28;20028;-67
2023/10/12 11:03:35;;;;;;;19.05;13.90;;;;;;;17.39;85.29;101256.75;5098417;28;20031;-67
2023/10/12 11:06:21;;;;;;;20.52;13.50;;;;;;;17.42;83.88;101266.56;5102875;28;20081;-66
2023/10/12 11:08:53;;;;;;;19.33;13.23;;;;;;;17.35;83.55;101255.63;5104734;28;20487;-67
2023/10/12 11:11:25;;;;;;;18.88;14.15;;;;;;;17.33;84.02;101257.91;5091775;28;20107;-67
2023/10/12 11:13:52;;;;;;;;;;;;;;;17.43;83.15;101246.59;5095318;28;20032;-67
2023/10/12 11:16:28;;;;;;;21.02;13.55;;;;;;;17.38;84.08;101243.00;5105100;28;19995;-67
2023/10/12 11:18:55;;;;;;;20.80;13.85;;;;;;;17.39;84.11;101234.28;5095132;28;20028;-66
2023/10/12 11:21:21;;;;;;;19.63;14.10;;;;;;;17.41;84.55;101242.44;5096634;28;20059;-66
2023/10/12 11:23:50;;;;;;;17.17;12.73;;;;;;;17.42;83.94;101242.13;5089370;28;20081;-66
2023/10/12 11:26:19;;;;;;;20.52;13.48;;;;;;;17.39;84.35;101253.94;5090585;28;20020;-66
2023/10/12 11:29:00;;;;;;;15.77;12.25;;;;;;;17.42;84.06;101256.16;5088643;28;20086;-66
2023/10/12 11:31:32;;;;;;;18.85;12.40;;;;;;;17.41;84.03;101251.69;5090774;28;20111;-66
2023/10/12 11:33:58;;;;;;;19.02;12.23;;;;;;;17.43;84.21;101248.59;5091676;28;20454;-66
2023/10/12 11:36:25;;;;;;;16.58;12.23;;;;;;;17.41;84.11;101240.47;5090021;28;20027;-66
2023/10/12 11:39:16;;;;;;;17.75;13.10;;;;;;;17.45;84.05;101248.28;5089260;28;20085;-66
2023/10/12 11:42:06;;;;;;;21.88;12.48;;;;;;;17.46;83.09;101233.97;5090512;28;20035;-66
2023/10/12 11:44:36;;;;;;;20.52;12.30;;;;;;;17.43;83.37;101246.59;5089091;28;20028;-66
2023/10/12 11:47:06;;;;;;;17.23;11.07;;;;;;;17.42;82.97;101236.53;5089585;28;20024;-66
2023/10/12 11:49:47;;;;;;;18.15;12.27;;;;;;;17.42;83.25;101233.72;5107300;28;20032;-66
2023/10/12 11:52:14;;;;;;;17.88;11.70;;;;;;;17.41;82.82;101232.03;5089331;28;20493;-66
2023/10/12 11:54:39;;;;;;;16.10;10.85;;;;;;;17.41;82.05;101223.63;5099278;28;20472;-66
2023/10/12 11:57:06;;;;;;;16.80;10.73;;;;;;;17.43;82.47;101228.94;5091247;28;20102;-66
2023/10/12 11:59:35;;;;;;;16.05;10.05;;;;;;;17.40;82.14;101227.53;5099311;28;20023;-66
2023/10/12 12:02:06;;;;;;;16.42;9.73;;;;;;;17.41;81.40;101219.97;5106328;28;20078;-66
2023/10/12 12:04:38;;;;;;;15.90;11.10;;;;;;;17.40;81.42;101227.53;5095501;28;20058;-66
2023/10/12 12:07:04;;;;;;;18.40;10.00;;;;;;;17.38;81.11;101221.41;5091899;28;20031;-66
2023/10/12 12:09:30;;;;;;;14.15;9.60;;;;;;;17.37;81.39;101219.72;5103241;28;20106;-66
2023/10/12 12:11:56;;;;;;;16.35;10.60;;;;;;;17.38;81.42;101221.41;5110461;28;20048;-66
2023/10/12 12:14:22;;;;;;;13.55;9.52;;;;;;;17.39;80.73;101228.69;5109383;28;20424;-66
2023/10/12 12:16:47;;;;;;;16.77;9.77;;;;;;;17.42;80.82;101232.88;5103809;28;20414;-66
2023/10/12 12:19:18;;;;;;;15.90;9.50;;;;;;;17.42;80.79;101232.88;5089892;28;20063;-66
2023/10/12 12:21:45;;;;;;;14.87;8.77;;;;;;;17.42;81.33;101216.88;5094428;28;20080;-66
2023/10/12 12:24:24;;;;;;;15.35;8.85;;;;;;;17.42;81.28;101211.25;5096715;28;20113;-66
2023/10/12 12:26:54;;;;;;;18.95;10.20;;;;;;;17.42;81.25;101202.00;5088524;28;20028;-67
2023/10/12 12:29:26;;;;;;;17.35;9.30;;;;;;;17.42;81.62;101197.22;5090103;28;20024;-66
2023/10/12 12:31:52;;;;;;;15.38;9.88;;;;;;;17.43;81.29;101193.28;5090367;28;20480;-66
2023/10/12 12:34:38;;;;;;;13.63;9.07;;;;;;;17.46;81.44;101193.84;5095983;28;20370;-66
2023/10/12 12:37:06;;;;;;;14.68;9.88;;;;;;;17.44;81.35;101171.69;5113848;28;20027;-66
2023/10/12 12:39:35;;;;;;;18.75;10.18;;;;;;;17.43;82.05;101170.00;5103135;28;20028;-66
2023/10/12 12:42:01;;;;;;;14.68;9.32;;;;;;;17.41;81.75;101178.72;5095299;28;20038;-66
2023/10/12 12:44:29;;;;;;;14.63;10.20;;;;;;;17.41;81.92;101170.31;5109032;28;20032;-66
2023/10/12 12:46:56;;;;;;;17.05;9.60;;;;;;;17.38;82.41;101175.66;5106741;28;20031;-66
2023/10/12 12:49:26;;;;;;;15.63;9.48;;;;;;;17.38;82.58;101175.66;5096950;28;20039;-66
2023/10/12 12:51:51;;;;;;;15.25;9.88;;;;;;;17.37;83.08;101186.06;5100169;28;20056;-66
2023/10/12 12:54:17;;;;;;;16.00;10.07;;;;;;;17.35;83.11;101179.88;5101985;28;20063;-66
2023/10/12 12:56:43;;;;;;;15.13;9.95;;;;;;;17.37;83.47;101188.00;5106062;28;20024;-66
2023/10/12 12:59:10;;;;;;;12.75;9.75;;;;;;;17.39;83.61;101182.94;5097330;28;20024;-66
2023/10/12 13:01:38;;;;;;;16.60;10.32;;;;;;;17.40;84.20;101185.44;5093195;28;20071;-66
2023/10/12 13:04:04;;;;;;;15.18;10.30;;;;;;;17.41;83.64;101178.72;5105911;28;20411;-66
2023/10/12 13:06:33;;;;;;;18.27;10.82;;;;;;;17.40;83.93;101184.63;5096450;28;20154;-66
2023/10/12 13:09:01;;;;;;;18.08;10.52;;;;;;;17.42;84.21;101190.78;5091236;28;20043;-66
2023/10/12 13:11:26;;;;;;;17.02;11.05;;;;;;;17.37;84.46;101186.06;5093494;28;20076;-67
2023/10/12 13:13:52;;;;;;;20.83;11.25;;;;;;;17.38;84.24;101181.28;5091473;28;20111;-67
2023/10/12 13:16:17;;;;;;;18.23;11.13;;;;;;;17.37;84.33;101177.63;5111713;28;20031;-66
2023/10/12 13:18:46;;;;;;;18.40;10.45;;;;;;;17.39;84.48;101180.13;5113243;28;20032;-66
2023/10/12 13:21:14;;;;;;;18.20;11.05;;;;;;;17.39;84.56;101180.97;5095986;28;20031;-66
2023/10/12 13:23:40;;;;;;;17.05;11.00;;;;;;;17.41;84.93;101181.53;5092072;28;20024;-66
2023/10/12 13:26:17;;;;;;;17.92;11.13;;;;;;;17.41;84.38;101178.72;5092207;28;20359;-67
2023/10/12 13:28:42;;;;;;;16.65;11.05;;;;;;;17.42;84.77;101182.38;5092649;28;20498;-66
2023/10/12 13:31:10;;;;;;;17.08;10.93;;;;;;;17.45;84.73;101172.50;5090436;28;20118;-66
2023/10/12 13:33:38;;;;;;;17.83;11.73;;;;;;;17.46;84.63;101177.03;5092537;28;20127;-66
2023/10/12 13:36:04;;;;;;;18.20;10.63;;;;;;;17.46;84.91;101179.81;5096158;28;20042;-66
2023/10/12 13:38:33;;;;;;;18.88;11.35;;;;;;;17.46;84.59;101172.25;5091622;28;20034;-67
2023/10/12 13:41:01;;;;;;;19.52;11.15;;;;;;;17.47;84.43;101173.06;5092216;28;20111;-65